Portada
METAR-TAF:

METAR-TAF

Aeroports :

Christchurch, Nova Zelanda

latitud: 43-29S, longitud: 172-33E, altitud: 38 m

Observació

L'informe es va fer fa 34 minuts, a les 18:30 UTC
Vent 4 kt del Nord
Temperatura 10°C
Humitat 87%
Pressió 1005 hPa
Visibilitat 10 km o més

METAR: NZCH 271830Z AUTO 01004KT 9999 NCD 10/08 Q1005 NOSIG

Hora: 08:04 (19:04 UTC)

Pronòstic

L'informe es va fer fa 2 hores i 2 minuts, a les 17:02 UTC
Pronòstic vàlid del 27 a les 18 UTC al 29 a les 00 UTC
Vent 2 kt amb direcció variable
Visibilitat 10 km o més
Núvols disperses a una alçada de 4000 ft
Evolucionant progressivament
l' 27 a les 21 UTC al 27 a les 23 UTC
Vent 12 kt del Est/Nord-Est
Evolucionant progressivament
l' 28 a les 08 UTC al 28 a les 10 UTC
Vent 2 kt amb direcció variable
Evolucionant progressivament
l' 28 a les 22 UTC al 29 a les 00 UTC
Vent 12 kt del Est/Nord-Est

TAF: NZCH 271702Z 2718/2900 VRB02KT 9999 SCT040 BECMG 2721/2723 06012KT BECMG 2808/2810 VRB02KT BECMG 2822/2900 06012KT

Observacions i pronòstics meteorològics de més de 4000 aeroports (METAR i TAF).

Les estacions disponibles són els punts grocs i vermells al mapa.

Posi el ratolí al punt desitjat per veure el nom de l'estació.

Feu clic per veure les observacions i els pronòstics meteorològics.

Per canviar el mapa: feu clic els botons verds amb una creu de color negre per apropar; al botó verd amb un guió per allunyar la imatge; o en les fletxes verdes per a mapes adjacents.


METAR-TAF: